Time;durP1;ratioP1;P1;durP2;ratioP2;P2;SDS_P1;SDS_P2;PMS_P1;PMS_P2;Temp;Humidity;BMP_temperature;BMP_pressure;BME280_temperature;BME280_humidity;BME280_pressure;Samples;Min_cycle;Max_cycle;Signal;HPM_P1;HPM_P2
2023/04/20 00:00:10;;;;;;;2.45;2.25;;;22.50;44.90;;;;;;5012299;28;20136;-64
2023/04/20 00:02:38;;;;;;;2.13;1.95;;;22.40;44.90;;;;;;5011376;28;20108;-64
2023/04/20 00:05:06;;;;;;;2.50;2.30;;;22.40;44.80;;;;;;5012309;28;20050;-64
2023/04/20 00:07:34;;;;;;;2.25;2.05;;;22.40;44.90;;;;;;4993853;28;20058;-64
2023/04/20 00:10:03;;;;;;;2.88;2.65;;;22.40;44.90;;;;;;4992792;28;20085;-64
2023/04/20 00:12:30;;;;;;;2.47;2.28;;;22.40;44.80;;;;;;4992775;28;20381;-64
2023/04/20 00:14:57;;;;;;;2.75;2.17;;;22.40;44.80;;;;;;4993020;28;20129;-64
2023/04/20 00:17:27;;;;;;;2.45;2.25;;;22.40;44.90;;;;;;4992518;28;20138;-64
2023/04/20 00:19:54;;;;;;;1.92;1.80;;;22.40;44.90;;;;;;4992930;28;20054;-64
2023/04/20 00:22:21;;;;;;;2.55;2.35;;;22.40;44.90;;;;;;4992905;28;20573;-64
2023/04/20 00:24:48;;;;;;;2.50;2.08;;;22.40;44.90;;;;;;4992781;28;20077;-64
2023/04/20 00:27:15;;;;;;;2.13;1.98;;;22.40;44.80;;;;;;4993799;28;20466;-64
2023/04/20 00:29:42;;;;;;;2.08;1.88;;;22.40;44.80;;;;;;4992886;28;20579;-64
2023/04/20 00:32:10;;;;;;;1.90;1.80;;;22.40;44.90;;;;;;4993225;28;20061;-64
2023/04/20 00:34:37;;;;;;;2.45;2.10;;;22.40;44.90;;;;;;4993067;28;20050;-64
2023/04/20 00:37:05;;;;;;;1.77;1.67;;;22.40;44.80;;;;;;4992375;28;20578;-64
2023/04/20 00:39:32;;;;;;;2.15;2.05;;;22.40;44.80;;;;;;4996893;28;20506;-65
2023/04/20 00:42:06;;;;;;;2.13;1.98;;;22.40;44.80;;;;;;5010805;28;20046;-64
2023/04/20 00:44:34;;;;;;;2.10;2.00;;;22.40;44.80;;;;;;5005326;28;20116;-65
2023/04/20 00:47:01;;;;;;;2.35;2.03;;;22.40;44.70;;;;;;4992830;28;20405;-64
2023/04/20 00:49:29;;;;;;;1.73;1.63;;;22.40;44.80;;;;;;4992942;28;20073;-64
2023/04/20 00:51:58;;;;;;;1.73;1.63;;;22.40;44.70;;;;;;4992750;28;20097;-64
2023/04/20 00:54:27;;;;;;;2.05;1.85;;;22.40;44.60;;;;;;4992928;28;20085;-64
2023/04/20 00:56:56;;;;;;;1.80;1.70;;;22.40;44.60;;;;;;4993486;28;20138;-64
2023/04/20 00:59:24;;;;;;;1.95;1.80;;;22.40;44.60;;;;;;4992847;28;20046;-64
2023/04/20 01:01:51;;;;;;;1.92;1.83;;;22.40;44.60;;;;;;4992635;28;20218;-64
2023/04/20 01:04:19;;;;;;;2.17;1.98;;;22.40;44.60;;;;;;4993249;28;20047;-64
2023/04/20 01:06:46;;;;;;;1.98;1.88;;;22.40;44.60;;;;;;4993208;28;20054;-64
2023/04/20 01:09:13;;;;;;;2.05;1.90;;;22.40;44.60;;;;;;4992686;28;20058;-64
2023/04/20 01:11:41;;;;;;;1.85;1.73;;;22.30;44.60;;;;;;4992243;28;20488;-64
2023/04/20 01:14:08;;;;;;;1.85;1.73;;;22.30;44.60;;;;;;4992951;28;20046;-64
2023/04/20 01:16:35;;;;;;;1.80;1.70;;;22.30;45.20;;;;;;4992929;28;20133;-64
2023/04/20 01:19:03;;;;;;;1.90;1.80;;;22.30;44.60;;;;;;4992781;28;20058;-64
2023/04/20 01:21:30;;;;;;;1.92;1.80;;;22.30;45.20;;;;;;4992083;28;20137;-63
2023/04/20 01:23:58;;;;;;;1.63;1.52;;;22.30;44.60;;;;;;4992519;28;20082;-64
2023/04/20 01:26:25;;;;;;;1.92;1.63;;;22.30;44.60;;;;;;4990635;28;20144;-64
2023/04/20 01:28:52;;;;;;;1.98;1.80;;;22.30;44.60;;;;;;4992388;28;20058;-64
2023/04/20 01:31:20;;;;;;;1.77;1.67;;;22.30;44.60;;;;;;4992894;28;20081;-64
2023/04/20 01:33:47;;;;;;;1.65;1.55;;;22.30;44.60;;;;;;4995180;28;20057;-64
2023/04/20 01:36:15;;;;;;;2.10;1.90;;;22.30;44.60;;;;;;4995654;28;20475;-64
2023/04/20 01:38:42;;;;;;;1.90;1.75;;;22.30;44.60;;;;;;4995680;28;20057;-64
2023/04/20 01:41:09;;;;;;;1.88;1.77;;;22.30;44.60;;;;;;4996159;28;20166;-64
2023/04/20 01:43:38;;;;;;;1.80;1.70;;;22.30;44.60;;;;;;4995986;28;20090;-64
2023/04/20 01:46:05;;;;;;;2.05;1.88;;;22.30;44.60;;;;;;4994669;28;20051;-64
2023/04/20 01:48:33;;;;;;;1.60;1.50;;;22.30;44.60;;;;;;4996430;28;20133;-64
2023/04/20 01:51:00;;;;;;;1.65;1.55;;;22.30;44.60;;;;;;4995596;28;20168;-64
2023/04/20 01:53:28;;;;;;;1.70;1.60;;;22.20;44.50;;;;;;4995199;28;20058;-64
2023/04/20 01:55:55;;;;;;;1.23;1.20;;;22.30;44.60;;;;;;4995304;28;20074;-64
2023/04/20 01:58:22;;;;;;;1.75;1.63;;;22.20;44.50;;;;;;4995705;28;20116;-64
2023/04/20 02:00:49;;;;;;;2.03;1.80;;;22.20;44.50;;;;;;4994969;28;20050;-64
2023/04/20 02:03:16;;;;;;;1.55;1.45;;;22.20;44.50;;;;;;4995587;28;20050;-64
2023/04/20 02:05:44;;;;;;;1.90;1.80;;;22.20;44.50;;;;;;4995726;28;20479;-64
2023/04/20 02:08:11;;;;;;;1.70;1.60;;;22.20;44.50;;;;;;4995337;28;20054;-64
2023/04/20 02:10:38;;;;;;;1.67;1.58;;;22.20;44.50;;;;;;4994198;28;20572;-64
2023/04/20 02:13:05;;;;;;;1.45;1.40;;;22.20;44.50;;;;;;4994886;28;20438;-64
2023/04/20 02:15:32;;;;;;;1.60;1.50;;;22.20;44.50;;;;;;4995575;28;20064;-64
2023/04/20 02:17:59;;;;;;;1.73;1.63;;;22.20;44.50;;;;;;4994916;28;20121;-64
2023/04/20 02:20:27;;;;;;;1.70;1.60;;;22.20;44.50;;;;;;4995401;28;20092;-64
2023/04/20 02:22:54;;;;;;;1.70;1.60;;;22.20;44.50;;;;;;5005243;28;20052;-64
2023/04/20 02:25:21;;;;;;;1.50;1.40;;;22.20;44.50;;;;;;5012445;28;20132;-64
2023/04/20 02:27:48;;;;;;;2.50;1.55;;;22.20;44.50;;;;;;5013748;28;20058;-65
2023/04/20 02:30:15;;;;;;;1.60;1.50;;;22.20;44.50;;;;;;5013595;28;20586;-64
2023/04/20 02:32:43;;;;;;;1.75;1.65;;;22.20;44.50;;;;;;5014616;28;20157;-64
2023/04/20 02:35:11;;;;;;;2.17;1.98;;;22.20;44.50;;;;;;5012987;28;20080;-64
2023/04/20 02:37:38;;;;;;;1.48;1.38;;;22.20;44.50;;;;;;5013979;28;20060;-64
2023/04/20 02:40:07;;;;;;;2.80;1.42;;;22.20;44.50;;;;;;5013861;28;20076;-64
2023/04/20 02:42:34;;;;;;;1.60;1.50;;;22.10;44.40;;;;;;5013930;28;20058;-64
2023/04/20 02:45:01;;;;;;;1.55;1.42;;;22.10;44.40;;;;;;5013657;28;20125;-64
2023/04/20 02:47:28;;;;;;;1.42;1.33;;;22.20;44.30;;;;;;5013429;28;20056;-64
2023/04/20 02:49:56;;;;;;;1.23;1.23;;;22.10;44.30;;;;;;5013256;28;20052;-65
2023/04/20 02:52:23;;;;;;;1.98;1.77;;;22.20;44.30;;;;;;5012594;28;20065;-64
2023/04/20 02:54:51;;;;;;;1.80;1.70;;;22.20;44.20;;;;;;5014129;28;20082;-64
2023/04/20 02:57:18;;;;;;;1.30;1.20;;;22.20;44.20;;;;;;5012937;28;20100;-64
2023/04/20 02:59:45;;;;;;;1.60;1.50;;;22.20;44.20;;;;;;5012830;28;20145;-64
2023/04/20 03:02:12;;;;;;;1.65;1.55;;;22.20;44.20;;;;;;5014030;28;20060;-64
2023/04/20 03:04:39;;;;;;;1.50;1.40;;;22.20;44.20;;;;;;5013261;28;20042;-64
2023/04/20 03:07:08;;;;;;;1.75;1.65;;;22.10;44.10;;;;;;5014005;28;20061;-64
2023/04/20 03:09:36;;;;;;;1.30;1.30;;;22.20;44.20;;;;;;5013376;28;20096;-64
2023/04/20 03:12:04;;;;;;;1.67;1.58;;;22.20;44.20;;;;;;5009306;28;20537;-64
2023/04/20 03:14:31;;;;;;;1.63;1.52;;;22.20;44.20;;;;;;4994586;28;20050;-64
2023/04/20 03:16:58;;;;;;;1.23;1.13;;;22.10;44.20;;;;;;4994773;28;20062;-64
2023/04/20 03:19:25;;;;;;;1.40;1.23;;;22.10;44.20;;;;;;4994216;28;20082;-64
2023/04/20 03:21:52;;;;;;;1.52;1.42;;;22.10;44.20;;;;;;4993720;28;20055;-64
2023/04/20 03:24:21;;;;;;;1.60;1.50;;;22.10;44.20;;;;;;4994340;28;20074;-64
2023/04/20 03:26:48;;;;;;;1.48;1.38;;;22.10;44.20;;;;;;4994290;28;20064;-64
2023/04/20 03:29:15;;;;;;;1.20;1.10;;;22.10;44.20;;;;;;4993753;28;20137;-64
2023/04/20 03:31:43;;;;;;;1.30;1.20;;;22.10;44.20;;;;;;4993446;28;20507;-64
2023/04/20 03:34:10;;;;;;;1.13;1.13;;;22.10;44.10;;;;;;4994153;28;20414;-64
2023/04/20 03:36:37;;;;;;;1.52;1.40;;;22.10;44.10;;;;;;4993702;28;20077;-64
2023/04/20 03:39:05;;;;;;;1.77;1.27;;;22.10;44.10;;;;;;4993786;28;20105;-64
2023/04/20 03:41:32;;;;;;;1.30;1.20;;;22.10;44.10;;;;;;4995011;28;20058;-64
2023/04/20 03:43:59;;;;;;;1.70;1.60;;;22.10;44.10;;;;;;5002702;28;20046;-64
2023/04/20 03:46:27;;;;;;;1.08;1.08;;;22.00;44.00;;;;;;5004711;28;20490;-64
2023/04/20 03:48:54;;;;;;;1.42;1.33;;;22.00;44.00;;;;;;4994270;28;20062;-64
2023/04/20 03:51:21;;;;;;;1.77;0.90;;;22.10;44.10;;;;;;4993562;28;20051;-64
2023/04/20 03:53:48;;;;;;;0.95;0.95;;;22.10;44.10;;;;;;4992668;28;20136;-64
2023/04/20 03:56:15;;;;;;;1.60;1.50;;;22.00;44.00;;;;;;4992856;28;20046;-64
2023/04/20 03:58:43;;;;;;;1.40;1.30;;;22.00;44.00;;;;;;5001411;28;20046;-64
2023/04/20 04:01:12;;;;;;;1.02;1.02;;;22.00;44.00;;;;;;5011415;28;20425;-64
2023/04/20 04:03:39;;;;;;;2.13;1.50;;;22.00;44.00;;;;;;5011780;28;20136;-64
2023/04/20 04:06:06;;;;;;;1.60;1.50;;;22.00;44.00;;;;;;5012253;28;20054;-65
2023/04/20 04:08:34;;;;;;;1.05;1.00;;;22.00;44.00;;;;;;5012153;28;20050;-64
2023/04/20 04:11:01;;;;;;;3.72;1.40;;;22.00;43.90;;;;;;5004438;28;20122;-64
2023/04/20 04:13:28;;;;;;;1.40;1.30;;;22.00;43.90;;;;;;4994339;28;20458;-64
2023/04/20 04:15:55;;;;;;;1.13;1.13;;;22.00;43.90;;;;;;4993652;28;20050;-64
2023/04/20 04:18:22;;;;;;;1.67;1.58;;;22.00;43.90;;;;;;4996448;28;20084;-64
2023/04/20 04:20:50;;;;;;;1.70;1.60;;;22.00;44.40;;;;;;4999928;28;20105;-64
2023/04/20 04:23:17;;;;;;;1.45;1.30;;;22.00;43.80;;;;;;5009087;28;20054;-64
2023/04/20 04:25:44;;;;;;;1.40;1.30;;;22.00;43.80;;;;;;5012003;28;20141;-64
2023/04/20 04:28:13;;;;;;;1.38;1.27;;;22.00;43.80;;;;;;5005932;28;20472;-65
2023/04/20 04:30:41;;;;;;;1.52;1.42;;;22.00;43.80;;;;;;5008893;28;20441;-64
2023/04/20 04:33:09;;;;;;;1.02;1.00;;;22.10;43.80;;;;;;5008807;28;20116;-64
2023/04/20 04:35:36;;;;;;;1.63;1.42;;;22.00;43.70;;;;;;5010223;28;20056;-64
2023/04/20 04:38:03;;;;;;;1.33;1.23;;;22.10;43.60;;;;;;5008215;28;20081;-64
2023/04/20 04:40:32;;;;;;;1.60;1.50;;;22.10;43.40;;;;;;5004208;28;20592;-64
2023/04/20 04:42:59;;;;;;;1.73;1.63;;;22.10;43.40;;;;;;5006839;28;20038;-64
2023/04/20 04:45:26;;;;;;;1.60;1.50;;;22.10;43.30;;;;;;5004733;28;20076;-64
2023/04/20 04:47:55;;;;;;;1.70;1.60;;;22.10;43.30;;;;;;5003519;28;20085;-64
2023/04/20 04:50:23;;;;;;;1.50;1.40;;;22.10;43.20;;;;;;5011270;28;20077;-64
2023/04/20 04:52:50;;;;;;;1.60;1.50;;;22.20;43.20;;;;;;5005781;28;20481;-64
2023/04/20 04:55:17;;;;;;;1.65;1.55;;;22.20;43.20;;;;;;5002626;28;20042;-64
2023/04/20 04:57:44;;;;;;;1.63;1.52;;;22.20;43.10;;;;;;4996763;28;20054;-64
2023/04/20 05:00:12;;;;;;;1.60;1.20;;;22.10;43.00;;;;;;5003199;28;20074;-64
2023/04/20 05:02:40;;;;;;;1.48;1.38;;;22.20;42.90;;;;;;5005477;28;20082;-64
2023/04/20 05:05:07;;;;;;;1.40;1.30;;;22.20;42.80;;;;;;5010224;28;20076;-64
2023/04/20 05:07:37;;;;;;;1.88;1.42;;;22.30;42.80;;;;;;4995330;28;20045;-63
2023/04/20 05:10:05;;;;;;;2.85;2.40;;;22.30;42.70;;;;;;5004689;28;20053;-64
2023/04/20 05:12:32;;;;;;;2.33;1.77;;;22.30;42.50;;;;;;5001552;28;20085;-64
2023/04/20 05:15:00;;;;;;;2.35;2.15;;;22.40;42.50;;;;;;5006170;28;20050;-63
2023/04/20 05:17:27;;;;;;;1.90;1.80;;;22.40;42.30;;;;;;5007068;28;20054;-64
2023/04/20 05:19:54;;;;;;;2.03;1.83;;;22.50;42.20;;;;;;5004582;28;20505;-61
2023/04/20 05:22:21;;;;;;;2.17;1.98;;;22.50;42.20;;;;;;5012616;28;20050;-61
2023/04/20 05:24:49;;;;;;;5.43;2.13;;;22.60;42.20;;;;;;5004650;28;20478;-63
2023/04/20 05:27:16;;;;;;;1.88;1.77;;;22.60;42.10;;;;;;5007320;28;20053;-62
2023/04/20 05:29:43;;;;;;;2.42;2.15;;;22.70;42.00;;;;;;5008637;28;20043;-63
2023/04/20 05:32:10;;;;;;;2.72;2.38;;;22.70;41.70;;;;;;5002744;28;20137;-63
2023/04/20 05:34:38;;;;;;;3.17;1.80;;;22.70;41.80;;;;;;5007748;28;20561;-63
2023/04/20 05:37:05;;;;;;;2.15;2.03;;;22.80;41.70;;;;;;5007122;28;20057;-65
2023/04/20 05:39:32;;;;;;;2.35;2.00;;;22.90;41.50;;;;;;5001512;28;20065;-65
2023/04/20 05:42:00;;;;;;;2.33;2.13;;;22.90;41.40;;;;;;5008888;28;20545;-63
2023/04/20 05:44:27;;;;;;;2.67;2.10;;;23.00;41.30;;;;;;5002899;28;20509;-63
2023/04/20 05:46:55;;;;;;;2.83;2.60;;;23.00;41.20;;;;;;5000649;28;20057;-63
2023/04/20 05:49:22;;;;;;;2.22;2.05;;;23.00;41.10;;;;;;5001927;28;20104;-64
2023/04/20 05:51:50;;;;;;;2.58;2.17;;;23.10;41.10;;;;;;4999579;28;20046;-64
2023/04/20 05:54:17;;;;;;;2.42;2.15;;;23.10;41.20;;;;;;5004226;28;20569;-63
2023/04/20 05:56:44;;;;;;;2.30;2.10;;;23.10;41.20;;;;;;5000749;28;20054;-63
2023/04/20 05:59:11;;;;;;;2.10;2.00;;;23.20;41.20;;;;;;5005145;28;20069;-63
2023/04/20 06:01:39;;;;;;;3.92;2.47;;;23.20;41.40;;;;;;5002473;28;20062;-63
2023/04/20 06:04:06;;;;;;;5.00;2.58;;;23.30;41.30;;;;;;5005601;28;20077;-63
2023/04/20 06:06:33;;;;;;;2.83;2.40;;;23.30;41.00;;;;;;5001561;28;20073;-65
2023/04/20 06:09:00;;;;;;;2.90;2.38;;;23.40;40.90;;;;;;5003026;28;20090;-65
2023/04/20 06:11:29;;;;;;;2.85;2.65;;;23.40;40.80;;;;;;5002287;28;20046;-64
2023/04/20 06:13:56;;;;;;;3.83;2.28;;;23.40;40.60;;;;;;5003867;28;20049;-68
2023/04/20 06:16:24;;;;;;;3.22;2.58;;;23.50;40.60;;;;;;5003468;28;20046;-63
2023/04/20 06:18:51;;;;;;;4.57;2.95;;;23.50;40.60;;;;;;5001337;28;20046;-64
2023/04/20 06:21:19;;;;;;;3.13;2.65;;;23.60;40.60;;;;;;5000357;28;20372;-63
2023/04/20 06:23:46;;;;;;;2.95;2.58;;;23.60;40.60;;;;;;5004058;28;20433;-65
2023/04/20 06:26:13;;;;;;;3.13;2.60;;;23.70;40.50;;;;;;5003715;28;20100;-64
2023/04/20 06:28:41;;;;;;;4.43;2.38;;;23.70;40.40;;;;;;5002443;28;20050;-64
2023/04/20 06:31:09;;;;;;;4.35;2.97;;;23.80;40.40;;;;;;5003933;28;20133;-66
2023/04/20 06:33:36;;;;;;;2.83;2.42;;;23.80;40.30;;;;;;5004979;28;20081;-63
2023/04/20 06:36:07;;;;;;;3.42;2.83;;;23.90;40.20;;;;;;5003007;28;20089;-65
2023/04/20 06:38:34;;;;;;;3.80;2.38;;;23.90;40.10;;;;;;5001778;28;20050;-64
2023/04/20 06:41:02;;;;;;;3.60;2.35;;;24.00;40.10;;;;;;5003708;28;20553;-64
2023/04/20 06:43:29;;;;;;;3.08;2.42;;;24.00;40.10;;;;;;5003152;28;20046;-64
2023/04/20 06:45:57;;;;;;;2.83;2.50;;;24.10;40.10;;;;;;5004452;28;21038;-63
2023/04/20 06:48:24;;;;;;;2.88;2.40;;;24.10;40.10;;;;;;5002593;28;20480;-63
2023/04/20 06:50:59;;;;;;;4.15;2.42;;;24.20;40.00;;;;;;5003408;28;20050;-65
2023/04/20 06:53:26;;;;;;;3.13;2.72;;;24.20;39.90;;;;;;5001587;28;20633;-64
2023/04/20 06:55:54;;;;;;;2.95;2.55;;;24.30;39.80;;;;;;5003689;28;20046;-66
2023/04/20 06:58:21;;;;;;;6.20;2.83;;;24.30;39.70;;;;;;5002056;28;20071;-67
2023/04/20 07:00:49;;;;;;;3.97;2.63;;;24.30;39.60;;;;;;4999810;28;20042;-64
2023/04/20 07:03:17;;;;;;;3.10;2.72;;;24.40;39.50;;;;;;4997202;28;20078;-63
2023/04/20 07:05:45;;;;;;;3.50;2.65;;;24.40;39.40;;;;;;4999484;28;20054;-63
2023/04/20 07:08:14;;;;;;;5.22;2.80;;;24.40;39.20;;;;;;5002948;28;20064;-64
2023/04/20 07:10:42;;;;;;;8.38;2.95;;;24.40;39.20;;;;;;5017161;28;20050;-64
2023/04/20 07:13:09;;;;;;;3.15;2.50;;;24.50;39.10;;;;;;5002505;28;20060;-64
2023/04/20 07:15:36;;;;;;;3.28;2.80;;;24.50;39.10;;;;;;5000530;28;20474;-64
2023/04/20 07:18:04;;;;;;;2.30;2.03;;;24.50;39.10;;;;;;5001996;28;20088;-64
2023/04/20 07:20:32;;;;;;;2.85;2.60;;;24.50;39.00;;;;;;5004795;28;20482;-64
2023/04/20 07:23:00;;;;;;;4.82;2.75;;;24.60;39.10;;;;;;5001971;28;20085;-64
2023/04/20 07:25:27;;;;;;;11.98;2.80;;;24.50;39.00;;;;;;5002092;28;20046;-63
2023/04/20 07:27:54;;;;;;;2.63;2.42;;;24.60;39.10;;;;;;5000120;28;20037;-64
2023/04/20 07:30:24;;;;;;;5.07;2.90;;;24.60;39.00;;;;;;4999267;28;20089;-64
2023/04/20 07:32:54;;;;;;;2.80;2.60;;;24.60;39.10;;;;;;5000647;28;20104;-66
2023/04/20 07:35:22;;;;;;;3.03;2.72;;;24.70;39.00;;;;;;5004096;28;20408;-64
2023/04/20 07:37:49;;;;;;;5.00;2.83;;;24.70;38.80;;;;;;5005084;28;20042;-65
2023/04/20 07:40:17;;;;;;;4.88;3.25;;;24.70;38.80;;;;;;5001889;28;20052;-67
2023/04/20 07:42:44;;;;;;;3.13;2.83;;;24.70;39.00;;;;;;5001219;28;20145;-65
2023/04/20 07:45:12;;;;;;;2.95;2.67;;;24.70;38.90;;;;;;5000889;28;20096;-65
2023/04/20 07:47:40;;;;;;;4.20;2.78;;;24.70;38.80;;;;;;5001800;28;20482;-64
2023/04/20 07:50:07;;;;;;;5.32;3.00;;;24.70;38.80;;;;;;5000281;28;20490;-64
2023/04/20 07:52:34;;;;;;;3.17;2.35;;;24.70;38.80;;;;;;5001894;28;20556;-64
2023/04/20 07:55:03;;;;;;;3.53;2.83;;;24.70;38.80;;;;;;5001571;28;20140;-64
2023/04/20 07:57:31;;;;;;;2.73;2.43;;;24.70;38.90;;;;;;5001640;28;20458;-63
2023/04/20 07:59:58;;;;;;;3.47;2.90;;;24.80;38.90;;;;;;5001370;28;20415;-63
2023/04/20 08:02:25;;;;;;;3.10;2.80;;;24.80;38.80;;;;;;5000933;28;20053;-63
2023/04/20 08:04:53;;;;;;;2.70;2.50;;;24.80;38.80;;;;;;4999428;28;20505;-65
2023/04/20 08:07:22;;;;;;;3.45;2.80;;;24.90;39.00;;;;;;5001543;28;20046;-65
2023/04/20 08:09:50;;;;;;;2.80;2.60;;;24.90;39.20;;;;;;4998564;28;20691;-67
2023/04/20 08:12:17;;;;;;;3.30;2.60;;;24.90;39.30;;;;;;5003909;28;20060;-66
2023/04/20 08:14:44;;;;;;;2.72;2.30;;;24.90;39.30;;;;;;5002205;28;20491;-68
2023/04/20 08:17:11;;;;;;;4.65;3.15;;;24.90;39.30;;;;;;5001597;28;20075;-66
2023/04/20 08:19:40;;;;;;;4.63;2.60;;;25.00;39.30;;;;;;5002926;28;20054;-69
2023/04/20 08:22:11;;;;;;;5.90;2.70;;;25.00;39.20;;;;;;5002562;28;20050;-68
2023/04/20 08:24:38;;;;;;;2.65;2.45;;;25.00;39.10;;;;;;5002738;28;20038;-69
2023/04/20 08:27:07;;;;;;;2.53;2.33;;;25.00;39.20;;;;;;5001044;28;20112;-67
2023/04/20 08:29:35;;;;;;;2.72;2.50;;;25.00;39.20;;;;;;5001848;28;20140;-68
2023/04/20 08:32:03;;;;;;;2.88;2.55;;;25.00;39.10;;;;;;5001713;28;20046;-68
2023/04/20 08:34:30;;;;;;;6.20;2.30;;;25.00;39.20;;;;;;5002514;28;20108;-70
2023/04/20 08:36:57;;;;;;;7.05;3.17;;;25.10;39.20;;;;;;5000449;28;20148;-71
2023/04/20 08:39:25;;;;;;;4.35;2.72;;;25.10;39.10;;;;;;5001258;28;20068;-69
2023/04/20 08:41:54;;;;;;;3.15;2.65;;;25.10;39.00;;;;;;5000861;28;20129;-69
2023/04/20 08:44:22;;;;;;;2.90;2.60;;;25.10;38.90;;;;;;5002969;28;20050;-67
2023/04/20 08:46:50;;;;;;;4.53;3.03;;;25.10;38.90;;;;;;5004137;28;20549;-68
2023/04/20 08:49:19;;;;;;;3.83;3.17;;;25.10;38.90;;;;;;5005684;28;20061;-65
2023/04/20 08:51:47;;;;;;;2.78;2.58;;;25.10;38.80;;;;;;5004263;28;20449;-64
2023/04/20 08:54:14;;;;;;;2.65;2.45;;;25.10;38.70;;;;;;5004109;28;20406;-64
2023/04/20 08:56:44;;;;;;;3.15;2.78;;;25.20;38.80;;;;;;5004087;28;20053;-62
2023/04/20 08:59:13;;;;;;;3.10;2.70;;;25.20;38.70;;;;;;5004647;28;20112;-64
2023/04/20 09:01:41;;;;;;;4.88;2.67;;;25.20;38.70;;;;;;5004717;28;20054;-64
2023/04/20 09:04:25;;;;;;;3.60;2.50;;;25.20;38.70;;;;;;5006565;28;20129;-65
2023/04/20 09:06:55;;;;;;;4.10;2.78;;;25.20;38.70;;;;;;5006039;28;20486;-67
2023/04/20 09:09:24;;;;;;;5.22;3.53;;;25.20;38.70;;;;;;5002813;28;20096;-65
2023/04/20 09:12:03;;;;;;;3.10;2.90;;;25.30;38.70;;;;;;5001643;28;20050;-65
2023/04/20 09:14:41;;;;;;;4.00;3.10;;;25.30;38.70;;;;;;5005236;28;20423;-67
2023/04/20 09:17:13;;;;;;;4.43;3.03;;;25.30;38.70;;;;;;5001054;28;20137;-66
2023/04/20 09:19:43;;;;;;;3.58;2.80;;;25.30;38.60;;;;;;5002822;28;20058;-63
2023/04/20 09:22:11;;;;;;;3.85;2.83;;;25.30;38.80;;;;;;5001998;28;20056;-64
2023/04/20 09:24:41;;;;;;;3.40;2.90;;;25.30;39.00;;;;;;5004840;28;20054;-65
2023/04/20 09:27:17;;;;;;;3.22;2.85;;;25.40;39.20;;;;;;5004185;28;20081;-64
2023/04/20 09:29:56;;;;;;;4.15;3.03;;;25.40;39.20;;;;;;5003920;28;20050;-65
2023/04/20 09:32:25;;;;;;;5.53;2.70;;;25.40;39.10;;;;;;5002842;28;20054;-63
2023/04/20 09:34:52;;;;;;;2.85;2.65;;;25.40;39.00;;;;;;5000738;28;20080;-64
2023/04/20 09:37:21;;;;;;;3.80;2.47;;;25.40;38.90;;;;;;5002511;28;20497;-66
2023/04/20 09:39:49;;;;;;;2.97;2.78;;;25.40;38.70;;;;;;5006164;28;20076;-62
2023/04/20 09:42:17;;;;;;;6.82;2.63;;;25.40;38.60;;;;;;5004212;28;20088;-65
2023/04/20 09:44:44;;;;;;;2.95;2.67;;;25.40;38.80;;;;;;5002135;28;20084;-65
2023/04/20 09:47:17;;;;;;;3.03;2.72;;;25.50;38.80;;;;;;5001358;28;20054;-64
2023/04/20 09:49:46;;;;;;;5.07;3.00;;;25.50;38.90;;;;;;5001866;28;21124;-64
2023/04/20 09:52:17;;;;;;;3.08;2.78;;;25.50;39.20;;;;;;5002768;28;20046;-62
2023/04/20 09:54:45;;;;;;;2.90;2.60;;;25.60;39.30;;;;;;5012051;28;20100;-63
2023/04/20 09:57:13;;;;;;;4.53;3.08;;;25.60;39.10;;;;;;5000942;28;21640;-66
2023/04/20 09:59:42;;;;;;;3.28;2.97;;;25.60;38.80;;;;;;5003961;28;20054;-66
2023/04/20 10:02:11;;;;;;;3.07;2.87;;;25.60;38.70;;;;;;5003992;28;20513;-65
2023/04/20 10:04:52;;;;;;;2.95;2.53;;;25.60;38.60;;;;;;5000284;28;20074;-63
2023/04/20 10:07:27;;;;;;;5.80;2.90;;;25.70;38.70;;;;;;5001541;28;20058;-63
2023/04/20 10:10:13;;;;;;;4.07;2.80;;;25.70;38.50;;;;;;5004513;28;20078;-63
2023/04/20 10:12:50;;;;;;;3.00;2.60;;;25.60;38.40;;;;;;5002274;28;20383;-63
2023/04/20 10:15:18;;;;;;;4.05;2.83;;;25.60;38.40;;;;;;5003069;28;20046;-63
2023/04/20 10:17:45;;;;;;;4.88;3.22;;;25.60;38.40;;;;;;5004401;28;20342;-63
2023/04/20 10:20:25;;;;;;;3.80;3.13;;;25.60;38.50;;;;;;5003910;28;20070;-63
2023/04/20 10:23:07;;;;;;;7.15;2.97;;;25.60;38.40;;;;;;5004426;28;20057;-63
2023/04/20 10:25:35;;;;;;;5.90;3.38;;;25.60;38.40;;;;;;5001620;28;20077;-63
2023/04/20 10:28:05;;;;;;;3.50;2.95;;;25.60;38.20;;;;;;5002156;28;20128;-63
2023/04/20 10:30:33;;;;;;;10.98;3.25;;;25.60;38.10;;;;;;5002434;28;20052;-63
2023/04/20 10:33:11;;;;;;;5.15;3.38;;;25.60;37.80;;;;;;4998055;28;20049;-63
2023/04/20 10:35:53;;;;;;;4.78;2.80;;;25.60;37.80;;;;;;5003829;28;20050;-63
2023/04/20 10:38:32;;;;;;;4.68;3.10;;;25.60;37.70;;;;;;5000028;28;20058;-63
2023/04/20 10:41:10;;;;;;;4.30;3.15;;;25.60;37.60;;;;;;4998441;28;20049;-63
2023/04/20 10:43:41;;;;;;;3.28;2.97;;;25.50;37.50;;;;;;4998083;28;20070;-62
2023/04/20 10:46:21;;;;;;;5.68;4.25;;;25.60;37.80;;;;;;4999549;28;20061;-64
2023/04/20 10:48:51;;;;;;;7.53;3.70;;;25.60;37.60;;;;;;4999111;28;20065;-63
2023/04/20 10:51:19;;;;;;;;;;;25.60;37.40;;;;;;5002349;28;20085;-65
2023/04/20 10:53:57;;;;;;;5.47;3.85;;;25.60;37.00;;;;;;5001682;28;20078;-62
2023/04/20 10:56:26;;;;;;;6.38;3.78;;;25.50;37.10;;;;;;5003127;28;20044;-61
2023/04/20 10:58:53;;;;;;;5.20;3.55;;;25.60;37.00;;;;;;5004713;28;20132;-60
2023/04/20 11:01:20;;;;;;;7.15;3.85;;;25.50;37.00;;;;;;5002785;28;20081;-62
2023/04/20 11:03:52;;;;;;;17.88;4.45;;;25.60;37.20;;;;;;5004531;28;20054;-60
2023/04/20 11:06:21;;;;;;;6.68;3.42;;;25.60;37.30;;;;;;5000948;28;20709;-61
2023/04/20 11:08:49;;;;;;;5.43;3.35;;;25.70;37.20;;;;;;5003238;28;20080;-60
2023/04/20 11:11:26;;;;;;;4.10;3.13;;;25.70;37.10;;;;;;4989198;28;20141;-62
2023/04/20 11:14:11;;;;;;;6.55;3.53;;;25.70;37.00;;;;;;5004570;28;20888;-62
2023/04/20 11:16:51;;;;;;;11.15;3.60;;;25.80;37.00;;;;;;5004228;28;20480;-58
2023/04/20 11:19:24;;;;;;;8.80;3.67;;;25.80;36.80;;;;;;4997716;28;20073;-63
2023/04/20 11:21:51;;;;;;;86.20;16.73;;;25.80;36.50;;;;;;5002365;28;20442;-66
2023/04/20 11:24:21;;;;;;;125.47;19.98;;;25.80;37.70;;;;;;5001181;28;20052;-62
2023/04/20 11:26:49;;;;;;;43.47;9.15;;;25.80;38.70;;;;;;5002163;28;20122;-63
2023/04/20 11:29:38;;;;;;;25.92;6.30;;;25.80;38.70;;;;;;5004240;28;20470;-63
2023/04/20 11:32:07;;;;;;;13.38;4.43;;;25.80;41.20;;;;;;4998922;28;20061;-62
2023/04/20 11:34:38;;;;;;;23.50;7.82;;;25.70;41.10;;;;;;5000807;28;20050;-62
2023/04/20 11:37:08;;;;;;;13.88;4.60;;;25.70;39.40;;;;;;5003526;28;20092;-63
2023/04/20 11:39:37;;;;;;;13.35;5.65;;;25.70;38.50;;;;;;4998655;28;20112;-59
2023/04/20 11:42:04;;;;;;;23.02;7.80;;;25.70;38.40;;;;;;5000483;28;20069;-60
2023/04/20 11:44:33;;;;;;;19.38;6.60;;;25.70;38.40;;;;;;5003818;28;20053;-59
2023/04/20 11:47:00;;;;;;;16.13;6.00;;;25.80;37.80;;;;;;4983884;28;20104;-61
2023/04/20 11:49:28;;;;;;;6.10;3.60;;;25.80;37.40;;;;;;5001628;28;20104;-64
2023/04/20 11:51:55;;;;;;;18.27;4.43;;;25.80;37.60;;;;;;5003389;28;20042;-62
2023/04/20 11:54:22;;;;;;;8.65;4.07;;;25.80;37.30;;;;;;5001516;28;20042;-61
2023/04/20 11:56:51;;;;;;;7.82;4.22;;;25.80;37.20;;;;;;4999308;28;20058;-64
2023/04/20 11:59:19;;;;;;;8.68;3.95;;;25.70;37.20;;;;;;4998926;28;20074;-62
2023/04/20 12:01:47;;;;;;;10.50;3.67;;;25.80;37.20;;;;;;5013255;28;20418;-62
2023/04/20 12:04:14;;;;;;;8.18;4.07;;;25.70;36.90;;;;;;5002000;28;20490;-62
2023/04/20 12:06:43;;;;;;;7.93;3.55;;;25.70;36.20;;;;;;4998929;28;20060;-64
2023/04/20 12:09:10;;;;;;;10.07;3.72;;;25.70;36.20;;;;;;5001514;28;20054;-64
2023/04/20 12:11:37;;;;;;;9.05;3.50;;;25.70;36.20;;;;;;4999431;28;20541;-65
2023/04/20 12:14:04;;;;;;;9.57;3.42;;;25.70;36.40;;;;;;5000867;28;20046;-61
2023/04/20 12:16:31;;;;;;;3.55;3.25;;;25.70;36.10;;;;;;4994934;28;20049;-62
2023/04/20 12:18:59;;;;;;;3.83;3.15;;;25.70;36.30;;;;;;5002322;28;20042;-64
2023/04/20 12:21:26;;;;;;;3.92;3.33;;;25.70;36.50;;;;;;4999766;28;20050;-63
2023/04/20 12:23:53;;;;;;;16.25;4.88;;;25.60;36.70;;;;;;4998904;28;20089;-62
2023/04/20 12:26:21;;;;;;;6.15;4.30;;;25.60;36.10;;;;;;5000339;28;20754;-62
2023/04/20 12:29:01;;;;;;;4.20;3.78;;;25.60;35.50;;;;;;4993712;28;20049;-64
2023/04/20 12:31:28;;;;;;;4.25;3.85;;;25.60;35.80;;;;;;4992204;28;20057;-62
2023/04/20 12:33:56;;;;;;;5.10;4.07;;;25.50;35.80;;;;;;4988340;28;20113;-62
2023/04/20 12:36:23;;;;;;;5.30;4.15;;;25.40;35.30;;;;;;4991382;28;20485;-63
2023/04/20 12:38:51;;;;;;;7.55;4.28;;;25.40;34.80;;;;;;4996365;28;20123;-61
2023/04/20 12:41:19;;;;;;;4.53;3.90;;;25.40;34.80;;;;;;4997779;28;20062;-61
2023/04/20 12:43:47;;;;;;;4.60;3.75;;;25.30;35.00;;;;;;4999265;28;20050;-65
2023/04/20 12:46:14;;;;;;;4.15;3.60;;;25.20;35.00;;;;;;4997334;28;20125;-64
2023/04/20 12:48:44;;;;;;;5.88;4.03;;;25.10;35.40;;;;;;5001393;28;20528;-66
2023/04/20 12:51:12;;;;;;;5.00;3.70;;;25.10;35.40;;;;;;5000311;28;20073;-62